Time;durP1;ratioP1;P1;durP2;ratioP2;P2;SDS_P1;SDS_P2;PMS_P1;PMS_P2;Temp;Humidity;BMP_temperature;BMP_pressure;BME280_temperature;BME280_humidity;BME280_pressure;Samples;Min_cycle;Max_cycle;Signal;HPM_P1;HPM_P2
2023/06/23 00:00:27;;;;;;;6.70;1.88;;;;;;;-144.47;100.00;52665.44;5013302;28;20045;-66
2023/06/23 00:02:53;;;;;;;6.55;1.50;;;;;;;-144.47;100.00;52649.53;5010627;28;20026;-65
2023/06/23 00:05:18;;;;;;;4.45;1.75;;;;;;;-144.47;100.00;52637.63;5036151;22;20052;-69
2023/06/23 00:07:44;;;;;;;3.88;1.50;;;;;;;-144.47;100.00;52665.44;5012242;28;20022;-70
2023/06/23 00:10:10;;;;;;;13.68;1.58;;;;;;;-144.47;100.00;52633.66;5030230;28;20025;-69
2023/06/23 00:12:41;;;;;;;3.08;1.40;;;;;;;-144.47;100.00;52621.72;5030304;28;20029;-69
2023/06/23 00:15:07;;;;;;;4.00;1.50;;;;;;;-144.47;100.00;52649.53;5029550;28;20072;-71
2023/06/23 00:17:33;;;;;;;8.05;1.60;;;;;;;-144.47;100.00;52611.81;5030360;28;20511;-70
2023/06/23 00:19:58;;;;;;;6.78;1.50;;;;;;;-144.47;100.00;52669.41;5029700;28;20034;-70
2023/06/23 00:22:25;;;;;;;5.72;1.33;;;;;;;-144.47;100.00;52625.72;5029955;28;20018;-69
2023/06/23 00:24:50;;;;;;;4.30;1.02;;;;;;;-144.47;100.00;52597.91;5029533;28;20128;-67
2023/06/23 00:27:16;;;;;;;4.25;1.30;;;;;;;-144.47;100.00;52641.59;5028377;28;20586;-69
2023/06/23 00:29:42;;;;;;;4.65;1.17;;;;;;;-144.47;100.00;52643.56;5018639;28;20038;-70
2023/06/23 00:32:07;;;;;;;4.55;1.10;;;;;;;-144.47;100.00;52653.50;5029625;28;20427;-70
2023/06/23 00:34:33;;;;;;;3.60;0.95;;;;;;;-144.47;100.00;52659.47;5022640;28;20393;-71
2023/06/23 00:36:59;;;;;;;6.93;1.60;;;;;;;-144.47;100.00;52633.66;5029347;28;20105;-69
2023/06/23 00:39:24;;;;;;;5.35;1.38;;;;;;;-144.47;100.00;52657.47;5029784;28;20026;-67
2023/06/23 00:41:50;;;;;;;6.05;1.20;;;;;;;-144.47;100.00;52655.50;5028597;28;20086;-70
2023/06/23 00:44:16;;;;;;;4.03;1.00;;;;;;;-144.47;100.00;52641.59;5029294;28;20117;-70
2023/06/23 00:46:43;;;;;;;4.55;1.00;;;;;;;-144.47;100.00;52645.56;5029315;28;20064;-68
2023/06/23 00:49:10;;;;;;;2.38;0.90;;;;;;;-144.47;100.00;52655.50;5030060;28;20021;-69
2023/06/23 00:51:36;;;;;;;2.80;1.17;;;;;;;-144.47;100.00;52663.44;5011248;28;20399;-69
2023/06/23 00:54:04;;;;;;;3.33;1.02;;;;;;;-144.47;100.00;52639.59;5029173;28;20057;-70
2023/06/23 00:56:30;;;;;;;2.08;0.90;;;;;;;-144.47;100.00;52639.59;5029365;28;20018;-68
2023/06/23 00:58:56;;;;;;;2.50;0.95;;;;;;;-144.47;100.00;52641.59;5028737;28;20029;-70
2023/06/23 01:01:21;;;;;;;2.85;1.10;;;;;;;-144.47;100.00;52657.47;5026458;28;20032;-69
2023/06/23 01:03:48;;;;;;;1.65;0.70;;;;;;;-144.47;100.00;52651.53;5028755;28;20072;-68
2023/06/23 01:06:24;;;;;;;5.45;1.40;;;;;;;-144.47;100.00;52621.72;5028809;28;20048;-65
2023/06/23 01:09:09;;;;;;;2.67;1.05;;;;;;;-144.47;100.00;52633.66;5029823;28;20022;-69
2023/06/23 01:12:02;;;;;;;6.65;1.45;;;;;;;-144.47;100.00;52653.50;5029503;28;20101;-66
2023/06/23 01:14:44;;;;;;;3.65;1.60;;;;;;;-144.47;100.00;52653.50;5024300;28;20113;-72
2023/06/23 01:17:19;;;;;;;3.80;1.10;;;;;;;-144.47;100.00;52641.59;5029471;28;20368;-67
2023/06/23 01:20:09;;;;;;;2.05;1.25;;;;;;;-144.47;100.00;52667.41;5029128;28;20029;-68
2023/06/23 01:22:45;;;;;;;2.58;1.00;;;;;;;-144.47;100.00;52653.50;5025102;28;20041;-67
2023/06/23 01:25:32;;;;;;;3.42;1.27;;;;;;;-144.47;100.00;52655.50;5028536;28;20830;-68
2023/06/23 01:28:06;;;;;;;5.30;1.10;;;;;;;-144.47;100.00;52675.34;5010845;28;20356;-67
2023/06/23 01:30:33;;;;;;;6.63;1.20;;;;;;;-144.47;100.00;52659.47;5029322;28;20060;-69
2023/06/23 01:33:06;;;;;;;1.90;0.85;;;;;;;-144.47;100.00;52645.56;5029252;28;20502;-70
2023/06/23 01:35:36;;;;;;;7.30;1.30;;;;;;;-144.47;100.00;52639.59;5028642;28;20030;-69
2023/06/23 01:38:14;;;;;;;8.77;1.00;;;;;;;-144.47;100.00;52683.31;5011167;28;20030;-65
2023/06/23 01:40:42;;;;;;;3.42;1.08;;;;;;;-144.47;100.00;52689.25;5028820;28;20032;-69
2023/06/23 01:43:11;;;;;;;1.60;0.70;;;;;;;-144.47;100.00;52661.44;5028974;28;20435;-69
2023/06/23 01:45:39;;;;;;;3.33;1.10;;;;;;;-144.47;100.00;52649.53;5028612;28;20022;-70
2023/06/23 01:48:08;;;;;;;3.83;0.75;;;;;;;-144.47;100.00;52641.59;5029376;28;20053;-68
2023/06/23 01:50:34;;;;;;;1.98;0.75;;;;;;;-144.47;100.00;52651.53;5028740;28;20584;-68
2023/06/23 01:53:02;;;;;;;2.10;0.80;;;;;;;-144.47;100.00;52615.78;5029839;28;20056;-68
2023/06/23 01:55:31;;;;;;;2.30;0.90;;;;;;;-144.47;100.00;52677.34;5032322;28;20025;-68
2023/06/23 01:57:57;;;;;;;;;;;;;;;-144.47;100.00;52649.53;5033195;28;20433;-69
2023/06/23 02:00:23;;;;;;;1.52;0.80;;;;;;;-144.47;100.00;52645.56;5014453;28;19988;-68
2023/06/23 02:02:51;;;;;;;1.08;0.50;;;;;;;-144.47;100.00;52663.44;5032553;28;20528;-68
2023/06/23 02:05:18;;;;;;;1.70;0.80;;;;;;;-144.47;100.00;52665.44;5031885;28;20025;-69
2023/06/23 02:07:47;;;;;;;1.50;0.77;;;;;;;-144.47;100.00;52667.41;5014522;28;20124;-67
2023/06/23 02:10:16;;;;;;;5.55;0.80;;;;;;;-144.47;100.00;52659.47;5032629;28;20028;-68
2023/06/23 02:12:44;;;;;;;1.48;0.80;;;;;;;-144.47;100.00;52671.38;5032616;28;20029;-70
2023/06/23 02:15:12;;;;;;;4.60;0.90;;;;;;;-144.47;100.00;52659.47;5031993;28;20025;-68
2023/06/23 02:17:40;;;;;;;1.20;0.70;;;;;;;-144.47;100.00;52683.31;5032752;28;20021;-70
2023/06/23 02:20:13;;;;;;;3.65;0.82;;;;;;;-144.47;100.00;52619.75;5032497;28;20032;-68
2023/06/23 02:22:41;;;;;;;1.67;0.90;;;;;;;-144.47;100.00;52655.50;5031837;28;20032;-70
2023/06/23 02:25:07;;;;;;;2.63;1.00;;;;;;;-144.47;100.00;52667.41;5031869;28;20025;-70
2023/06/23 02:27:33;;;;;;;2.55;0.90;;;;;;;-144.47;100.00;52691.25;5015209;28;20803;-70
2023/06/23 02:30:00;;;;;;;1.50;0.70;;;;;;;-144.47;100.00;52657.47;5032329;28;20120;-70
2023/06/23 02:32:25;;;;;;;3.90;1.00;;;;;;;-144.47;100.00;52663.44;5031957;28;20025;-69
2023/06/23 02:34:51;;;;;;;2.08;1.00;;;;;;;-144.47;100.00;52645.56;5032118;28;20038;-70
2023/06/23 02:37:21;;;;;;;2.20;1.20;;;;;;;-144.47;100.00;52649.53;5032479;28;20029;-70
2023/06/23 02:39:51;;;;;;;0.65;0.65;;;;;;;-144.47;100.00;52669.41;5031756;28;20403;-71
2023/06/23 02:42:20;;;;;;;1.58;1.00;;;;;;;-144.47;100.00;52671.38;5032147;28;20352;-69
2023/06/23 02:44:56;;;;;;;2.90;0.90;;;;;;;-144.47;100.00;52645.56;5031807;28;20099;-66
2023/06/23 02:47:24;;;;;;;5.25;1.33;;;;;;;-144.47;100.00;52655.50;5014089;28;20079;-69
2023/06/23 02:49:53;;;;;;;1.77;1.00;;;;;;;-144.47;100.00;52669.41;5031832;28;20469;-70
2023/06/23 02:52:21;;;;;;;1.90;1.20;;;;;;;-144.47;100.00;52653.50;5014532;28;20029;-69
2023/06/23 02:54:50;;;;;;;4.17;1.20;;;;;;;-144.47;100.00;52657.47;5014037;28;20030;-69
2023/06/23 02:57:19;;;;;;;2.20;1.30;;;;;;;-144.47;100.00;52659.47;5030978;28;20414;-70
2023/06/23 02:59:46;;;;;;;2.05;0.90;;;;;;;-144.47;100.00;52669.41;5029589;28;20032;-69
2023/06/23 03:02:15;;;;;;;4.13;1.40;;;;;;;-144.47;100.00;52651.53;5031131;28;20025;-72
2023/06/23 03:04:41;;;;;;;4.40;1.17;;;;;;;-144.47;100.00;52665.44;5030571;28;20033;-69
2023/06/23 03:07:07;;;;;;;3.47;1.40;;;;;;;-144.47;100.00;52681.31;5031326;28;20082;-68
2023/06/23 03:09:33;;;;;;;3.65;1.27;;;;;;;-144.47;100.00;52673.38;5031848;28;20025;-67
2023/06/23 03:11:59;;;;;;;7.10;1.30;;;;;;;-144.47;100.00;52657.47;5031553;28;20041;-70
2023/06/23 03:14:26;;;;;;;4.18;1.75;;;;;;;-144.47;100.00;52643.56;5018706;28;20040;-69
2023/06/23 03:17:00;;;;;;;2.88;1.55;;;;;;;-144.47;100.00;52669.41;5030156;28;20025;-69
2023/06/23 03:19:43;;;;;;;3.03;1.45;;;;;;;-144.47;100.00;52683.31;5031164;28;20514;-69
2023/06/23 03:22:17;;;;;;;3.60;1.77;;;;;;;-144.47;100.00;52677.34;5031366;28;20033;-68
2023/06/23 03:24:48;;;;;;;4.85;1.70;;;;;;;-144.47;100.00;52635.63;5030442;28;20110;-65
2023/06/23 03:27:14;;;;;;;4.72;1.73;;;;;;;-144.47;100.00;52671.38;5013565;28;20057;-69
2023/06/23 03:29:52;;;;;;;4.97;1.95;;;;;;;-144.47;100.00;52651.53;5030778;28;20490;-68
2023/06/23 03:32:24;;;;;;;3.85;1.90;;;;;;;-144.47;100.00;52689.25;5030706;28;20500;-70
2023/06/23 03:34:56;;;;;;;5.55;2.25;;;;;;;-144.47;100.00;52659.47;5030692;28;20025;-68
2023/06/23 03:37:26;;;;;;;6.53;1.92;;;;;;;-144.47;100.00;52657.47;5030923;28;20390;-70
2023/06/23 03:39:57;;;;;;;5.40;2.55;;;;;;;-144.47;100.00;52681.31;5031328;28;20447;-69
2023/06/23 03:42:23;;;;;;;7.68;2.20;;;;;;;-144.47;100.00;52669.41;5030865;28;20430;-69
2023/06/23 03:44:51;;;;;;;8.45;2.72;;;;;;;-144.47;100.00;52667.41;5030968;28;20095;-70
2023/06/23 03:47:20;;;;;;;4.63;2.40;;;;;;;-144.47;100.00;52657.47;5031519;28;20026;-67
2023/06/23 03:49:55;;;;;;;4.18;2.47;;;;;;;-144.47;100.00;52657.47;5031053;28;20025;-72
2023/06/23 03:52:23;;;;;;;8.05;2.67;;;;;;;-144.47;100.00;52671.38;5030284;28;20120;-68
2023/06/23 03:54:52;;;;;;;8.00;2.38;;;;;;;-144.47;100.00;52641.59;5030136;28;20036;-66
2023/06/23 03:57:20;;;;;;;8.70;2.72;;;;;;;-144.47;100.00;52649.53;5030548;28;20308;-68
2023/06/23 03:59:48;;;;;;;3.80;2.28;;;;;;;-144.47;100.00;52671.38;5028876;28;20057;-67
2023/06/23 04:02:17;;;;;;;10.05;2.97;;;;;;;-144.47;100.00;52677.34;5028843;28;20028;-71
2023/06/23 04:04:44;;;;;;;10.50;2.42;;;;;;;-144.47;100.00;52677.34;5029948;28;20505;-68
2023/06/23 04:07:11;;;;;;;6.80;2.63;;;;;;;-144.47;100.00;52649.53;5030621;28;20488;-68
2023/06/23 04:09:40;;;;;;;5.10;2.70;;;;;;;-144.47;100.00;52689.25;5030564;28;20385;-71
2023/06/23 04:12:10;;;;;;;7.70;2.97;;;;;;;-144.47;100.00;52659.47;5012728;28;20088;-70
2023/06/23 04:14:37;;;;;;;6.97;3.10;;;;;;;-144.47;100.00;52689.25;5029212;28;20033;-67
2023/06/23 04:17:04;;;;;;;6.93;2.85;;;;;;;-144.47;100.00;52667.41;5007612;28;20033;-68
2023/06/23 04:19:30;;;;;;;10.45;3.45;;;;;;;-144.47;100.00;52671.38;5027672;28;20068;-70
2023/06/23 04:21:58;;;;;;;7.55;3.63;;;;;;;-144.47;100.00;52667.41;5006582;28;20017;-69
2023/06/23 04:24:24;;;;;;;10.68;3.10;;;;;;;-144.47;100.00;52681.31;5019750;28;20032;-69
2023/06/23 04:26:53;;;;;;;7.28;2.70;;;;;;;-144.47;100.00;52655.50;5026801;28;20049;-69
2023/06/23 04:29:21;;;;;;;13.77;3.33;;;;;;;-144.47;100.00;52675.34;5030113;28;20029;-69
2023/06/23 04:31:50;;;;;;;11.68;3.13;;;;;;;-144.47;100.00;52657.47;5029883;28;20026;-72
2023/06/23 04:34:16;;;;;;;8.93;2.63;;;;;;;-144.47;100.00;52639.59;5024995;28;20033;-71
2023/06/23 04:36:48;;;;;;;15.75;3.25;;;;;;;-144.47;100.00;52651.53;5029898;28;20503;-69
2023/06/23 04:39:27;;;;;;;7.30;2.92;;;;;;;-144.47;100.00;52665.44;5011677;28;20048;-70
2023/06/23 04:41:56;;;;;;;9.95;3.05;;;;;;;-144.47;100.00;52665.44;5027406;28;20030;-72
2023/06/23 04:44:26;;;;;;;15.52;3.17;;;;;;;-144.47;100.00;52671.38;5028903;28;20087;-72
2023/06/23 04:46:54;;;;;;;10.48;2.97;;;;;;;-144.47;100.00;52685.28;5023160;28;20021;-71
2023/06/23 04:49:23;;;;;;;10.55;3.30;;;;;;;-144.47;100.00;52697.19;5029663;28;20032;-71
2023/06/23 04:51:52;;;;;;;7.20;3.58;;;;;;;-144.47;100.00;52661.44;5029938;28;20034;-72
2023/06/23 04:54:28;;;;;;;;;;;;;;;-144.47;100.00;52695.22;5031300;28;20124;-70
2023/06/23 04:57:01;;;;;;;13.27;3.58;;;;;;;-144.47;100.00;52675.34;5030639;28;19987;-67
2023/06/23 04:59:33;;;;;;;12.80;4.05;;;;;;;-144.47;100.00;52683.31;5028718;28;20081;-71
2023/06/23 05:02:01;;;;;;;14.38;3.83;;;;;;;-144.47;100.00;52679.31;5024487;28;20025;-71
2023/06/23 05:04:28;;;;;;;15.57;3.80;;;;;;;-144.47;100.00;52673.38;5009340;28;20034;-71
2023/06/23 05:06:54;;;;;;;9.45;3.42;;;;;;;-144.47;100.00;52681.31;5029385;28;20580;-71
2023/06/23 05:09:21;;;;;;;17.25;3.67;;;;;;;-144.47;100.00;52693.22;5025159;28;20080;-69
2023/06/23 05:11:48;;;;;;;19.88;4.32;;;;;;;-144.47;100.00;52677.34;5028710;28;20032;-72
2023/06/23 05:14:16;;;;;;;12.73;4.85;;;;;;;-144.47;100.00;52685.28;5028104;28;20032;-69
2023/06/23 05:16:43;;;;;;;14.15;3.90;;;;;;;-144.47;100.00;52705.16;5028679;28;20060;-70
2023/06/23 05:19:10;;;;;;;22.33;4.47;;;;;;;-144.47;100.00;52681.31;5028267;28;20053;-70
2023/06/23 05:21:38;;;;;;;14.45;4.28;;;;;;;-144.47;100.00;52659.47;5029059;28;20033;-70
2023/06/23 05:24:09;;;;;;;14.57;4.53;;;;;;;-144.47;100.00;52679.31;5007948;28;20079;-68
2023/06/23 05:26:37;;;;;;;11.95;4.68;;;;;;;-144.47;100.00;52681.31;5028327;28;20025;-72
2023/06/23 05:29:06;;;;;;;13.20;4.68;;;;;;;-144.47;100.00;52679.31;5032635;28;20040;-72
2023/06/23 05:31:36;;;;;;;14.63;4.68;;;;;;;-144.47;100.00;52705.16;5032957;28;20028;-71
2023/06/23 05:34:04;;;;;;;18.40;4.80;;;;;;;-144.47;100.00;52681.31;5032498;28;20025;-73
2023/06/23 05:36:32;;;;;;;13.20;4.55;;;;;;;-144.47;100.00;52689.25;5034988;28;20121;-72
2023/06/23 05:38:59;;;;;;;12.55;4.40;;;;;;;-144.47;100.00;52701.19;5033409;28;20387;-72
2023/06/23 05:41:25;;;;;;;16.45;4.40;;;;;;;-144.47;100.00;52677.34;5032097;28;20708;-71
2023/06/23 05:43:50;;;;;;;18.77;4.70;;;;;;;-144.47;100.00;52673.38;5028219;28;20030;-72
2023/06/23 05:46:19;;;;;;;14.63;4.28;;;;;;;-144.47;100.00;52683.31;5033127;28;20505;-72
2023/06/23 05:48:50;;;;;;;9.25;3.50;;;;;;;-144.47;100.00;52719.06;5020888;28;20029;-69
2023/06/23 05:51:22;;;;;;;14.20;3.95;;;;;;;-144.47;100.00;52671.38;5029221;28;20025;-70
2023/06/23 05:53:55;;;;;;;6.85;2.30;;;;;;;-144.47;100.00;52683.31;5039922;28;20732;-72
2023/06/23 05:56:20;;;;;;;13.23;3.00;;;;;;;-144.47;100.00;52659.47;5039615;28;20048;-72
2023/06/23 05:58:50;;;;;;;16.08;2.85;;;;;;;-144.47;100.00;52671.38;5039359;28;20029;-74
2023/06/23 06:01:20;;;;;;;10.82;3.40;;;;;;;-144.47;98.21;52665.44;5028658;28;20498;-73
2023/06/23 06:04:04;;;;;;;9.13;2.20;;;;;;;-144.47;97.25;52699.19;5039255;28;20021;-73
2023/06/23 06:06:31;;;;;;;7.22;2.00;;;;;;;-144.47;95.84;52697.19;5045392;22;20056;-67
2023/06/23 06:08:58;;;;;;;10.60;1.88;;;;;;;-144.47;95.61;52675.34;5032487;28;20025;-65
2023/06/23 06:11:25;;;;;;;6.60;2.00;;;;;;;-144.47;95.44;52689.25;5032700;28;20156;-66
2023/06/23 06:13:51;;;;;;;8.73;1.70;;;;;;;-144.47;95.55;52679.31;5028431;28;20104;-67
2023/06/23 06:16:18;;;;;;;4.65;1.67;;;;;;;-144.47;95.82;52677.34;5014140;28;20542;-65
2023/06/23 06:18:45;;;;;;;8.15;1.80;;;;;;;-144.47;95.70;52689.25;5032939;28;20448;-65
2023/06/23 06:21:13;;;;;;;7.85;1.70;;;;;;;-144.47;95.70;52691.25;5032889;28;20116;-67
2023/06/23 06:23:41;;;;;;;4.00;1.70;;;;;;;-144.47;95.75;52679.31;5028370;28;20028;-67
2023/06/23 06:26:08;;;;;;;3.42;1.60;;;;;;;-144.47;95.22;52693.22;5032362;28;20024;-66
2023/06/23 06:28:36;;;;;;;8.80;1.65;;;;;;;-144.47;94.48;52681.31;5032551;28;20061;-68
2023/06/23 06:31:03;;;;;;;5.70;1.83;;;;;;;-144.47;95.97;52673.38;5033209;28;20032;-68
2023/06/23 06:33:31;;;;;;;9.90;2.15;;;;;;;-144.47;95.88;52679.31;5033671;28;20026;-65
2023/06/23 06:36:03;;;;;;;7.45;2.92;;;;;;;-144.47;96.91;52681.31;5033127;28;20026;-65
2023/06/23 06:38:34;;;;;;;4.85;1.65;;;;;;;-144.47;96.78;52681.31;5033501;28;20025;-64
2023/06/23 06:41:04;;;;;;;7.97;2.50;;;;;;;-144.47;97.64;52713.09;5032487;28;20483;-64
2023/06/23 06:43:29;;;;;;;3.50;1.33;;;;;;;-144.47;97.38;52665.44;5034304;28;20021;-66
2023/06/23 06:45:55;;;;;;;7.22;1.75;;;;;;;-144.47;97.03;52671.38;5032867;28;20481;-66
2023/06/23 06:48:22;;;;;;;7.20;2.58;;;;;;;-144.47;94.33;52697.19;5032864;28;20025;-66
2023/06/23 06:50:50;;;;;;;9.07;2.85;;;;;;;-144.47;93.78;52693.22;5032970;28;20032;-66
2023/06/23 06:53:17;;;;;;;7.90;1.63;;;;;;;-144.47;91.13;52683.31;5032867;28;20670;-66
2023/06/23 06:55:44;;;;;;;2.90;1.40;;;;;;;-144.47;91.01;52689.25;5014578;28;20030;-65
2023/06/23 06:58:10;;;;;;;8.70;2.08;;;;;;;-144.47;90.50;52687.28;5031964;28;20148;-67
2023/06/23 07:00:35;;;;;;;4.28;1.70;;;;;;;-144.47;90.33;52669.41;5028874;28;20052;-68
2023/06/23 07:03:03;;;;;;;5.32;1.40;;;;;;;-144.47;90.01;52691.25;5031780;28;20025;-67
2023/06/23 07:05:28;;;;;;;5.28;2.22;;;;;;;-144.47;90.59;52683.31;5031938;28;20037;-62
2023/06/23 07:07:54;;;;;;;4.95;1.70;;;;;;;-144.47;90.76;52679.31;5032887;28;20021;-67
2023/06/23 07:10:19;;;;;;;3.15;1.50;;;;;;;-144.47;91.79;52665.44;5032115;28;20544;-67
2023/06/23 07:12:44;;;;;;;7.75;1.45;;;;;;;-144.47;92.15;52689.25;5032033;28;20028;-67
2023/06/23 07:15:10;;;;;;;4.10;1.45;;;;;;;-144.47;91.60;52661.44;5018432;28;20026;-66
2023/06/23 07:17:35;;;;;;;7.10;2.90;;;;;;;-144.47;92.09;52685.28;5031564;28;20115;-67
2023/06/23 07:20:01;;;;;;;3.33;1.63;;;;;;;-144.47;91.74;52701.19;5031580;28;20399;-67
2023/06/23 07:22:26;;;;;;;5.00;2.22;;;;;;;-144.47;92.13;52685.28;5027694;28;20498;-66
2023/06/23 07:24:53;;;;;;;11.70;2.05;;;;;;;-144.47;92.32;52683.31;5031005;28;20027;-66
2023/06/23 07:27:19;;;;;;;2.95;1.80;;;;;;;-144.47;92.14;52699.19;5031840;28;20017;-67
2023/06/23 07:29:44;;;;;;;9.32;1.85;;;;;;;-144.47;92.57;52701.19;5031069;28;20040;-66
2023/06/23 07:32:10;;;;;;;4.30;1.50;;;;;;;-144.47;93.49;52707.13;5032036;28;20030;-65
2023/06/23 07:34:35;;;;;;;4.30;1.90;;;;;;;-144.47;91.48;52679.31;5013576;28;20531;-65
2023/06/23 07:37:01;;;;;;;6.82;2.35;;;;;;;-144.47;91.74;52691.25;5031421;28;20052;-67
2023/06/23 07:39:26;;;;;;;7.72;2.58;;;;;;;-144.47;88.58;52649.53;5031411;28;20025;-66
2023/06/23 07:41:51;;;;;;;8.95;2.47;;;;;;;-144.47;88.96;52685.28;5031556;28;20112;-66
2023/06/23 07:44:17;;;;;;;6.15;2.63;;;;;;;-144.47;88.95;52691.25;5012213;28;20033;-62
2023/06/23 07:46:43;;;;;;;8.57;2.35;;;;;;;-144.47;87.96;52689.25;5031142;28;20029;-67
2023/06/23 07:49:08;;;;;;;5.47;1.70;;;;;;;-144.47;86.48;52685.28;5031208;28;20025;-68
2023/06/23 07:51:34;;;;;;;4.55;1.83;;;;;;;-144.47;84.85;52671.38;5031371;28;20505;-66
2023/06/23 07:53:59;;;;;;;7.47;2.15;;;;;;;-144.47;84.93;52665.44;5030667;28;20033;-65
2023/06/23 07:56:24;;;;;;;6.97;2.00;;;;;;;-144.47;86.40;52689.25;5030996;28;20029;-65
2023/06/23 07:58:50;;;;;;;3.30;2.00;;;;;;;-144.47;85.94;52691.25;5031078;28;20040;-66
2023/06/23 08:01:15;;;;;;;4.50;1.95;;;;;;;-144.47;85.78;52649.53;5026847;28;20039;-67
2023/06/23 08:03:46;;;;;;;6.07;1.95;;;;;;;-144.47;85.71;52681.31;5030448;28;20021;-65
2023/06/23 08:06:11;;;;;;;3.05;1.73;;;;;;;-144.47;85.35;52687.28;5030667;28;20021;-66
2023/06/23 08:08:36;;;;;;;3.78;1.85;;;;;;;-144.47;86.13;52665.44;5031062;28;20022;-63
2023/06/23 08:11:02;;;;;;;5.43;1.90;;;;;;;-144.47;86.04;52685.28;5031205;28;20093;-66
2023/06/23 08:13:28;;;;;;;4.53;1.98;;;;;;;-144.47;84.64;52645.56;5029893;28;20149;-67
2023/06/23 08:15:53;;;;;;;4.15;1.95;;;;;;;-144.47;85.19;52691.25;5030573;28;20025;-67
2023/06/23 08:18:18;;;;;;;3.92;2.05;;;;;;;-144.47;85.07;52693.22;5030269;28;20025;-66
2023/06/23 08:20:44;;;;;;;6.45;2.42;;;;;;;-144.47;83.50;52697.19;5030956;28;20033;-65
2023/06/23 08:23:09;;;;;;;5.90;2.42;;;;;;;-144.47;83.49;52677.34;5026856;28;20052;-68
2023/06/23 08:25:34;;;;;;;4.38;2.20;;;;;;;-144.47;81.92;52657.47;5030149;28;20032;-67
2023/06/23 08:28:00;;;;;;;3.50;1.98;;;;;;;-144.47;81.33;52679.31;5030945;28;20026;-66
2023/06/23 08:30:27;;;;;;;6.97;2.10;;;;;;;-144.47;81.00;52681.31;5031104;28;20037;-66
2023/06/23 08:32:52;;;;;;;9.63;2.42;;;;;;;-144.47;79.82;52693.22;5030481;28;20114;-66
2023/06/23 08:35:18;;;;;;;7.78;1.90;;;;;;;-144.47;78.91;52677.34;5030517;28;20654;-66
2023/06/23 08:37:43;;;;;;;6.25;2.25;;;;;;;-144.47;77.81;52683.31;5030006;28;20573;-65
2023/06/23 08:40:09;;;;;;;5.18;2.30;;;;;;;-144.47;75.71;52701.19;5030524;28;20017;-67
2023/06/23 08:42:35;;;;;;;10.30;2.85;;;;;;;-144.47;76.38;52681.31;5030160;28;20083;-65
2023/06/23 08:45:06;;;;;;;3.85;2.00;;;;;;;-144.47;75.30;52693.22;5029720;28;20036;-64
2023/06/23 08:47:37;;;;;;;5.95;1.95;;;;;;;-144.47;74.22;52677.34;5030192;28;20609;-67
2023/06/23 08:50:02;;;;;;;6.53;2.10;;;;;;;-144.47;73.47;52697.19;5030124;28;20025;-68
2023/06/23 08:52:28;;;;;;;3.13;1.60;;;;;;;-144.47;75.01;52683.31;5029868;28;20029;-66
2023/06/23 08:54:54;;;;;;;5.43;1.65;;;;;;;-144.47;74.07;52709.13;5029837;28;20025;-66
2023/06/23 08:57:20;;;;;;;3.97;1.48;;;;;;;-144.47;74.37;52683.31;5029640;28;20451;-64
2023/06/23 08:59:46;;;;;;;2.85;1.60;;;;;;;-144.47;74.32;52691.25;5028085;28;20131;-67
2023/06/23 09:02:11;;;;;;;4.15;1.73;;;;;;;-144.47;73.73;52721.03;5008792;28;20538;-66
2023/06/23 09:04:39;;;;;;;4.60;1.77;;;;;;;-144.47;73.58;52661.44;5029269;28;20017;-63
2023/06/23 09:07:05;;;;;;;4.25;1.60;;;;;;;-144.47;73.47;52703.16;5030135;28;20027;-67
2023/06/23 09:09:30;;;;;;;4.10;1.73;;;;;;;-144.47;74.03;52691.25;5029818;28;20506;-66
2023/06/23 09:11:58;;;;;;;5.25;1.60;;;;;;;-144.47;74.09;52689.25;5030108;28;20526;-66
2023/06/23 09:14:29;;;;;;;3.50;1.83;;;;;;;-144.47;74.54;52681.31;5025120;28;20032;-65
2023/06/23 09:16:55;;;;;;;4.88;1.90;;;;;;;-144.47;74.34;52705.16;5028810;28;20115;-68
2023/06/23 09:19:22;;;;;;;3.38;1.95;;;;;;;-144.47;74.36;52709.13;5030034;28;20128;-66
2023/06/23 09:21:49;;;;;;;3.38;1.60;;;;;;;-144.47;74.92;52701.19;5029694;28;20047;-63
2023/06/23 09:24:14;;;;;;;3.03;1.55;;;;;;;-144.47;72.92;52689.25;5025038;28;20021;-65
2023/06/23 09:26:51;;;;;;;2.83;1.40;;;;;;;-144.47;72.65;52709.13;5011543;28;20036;-66
2023/06/23 09:29:18;;;;;;;2.97;1.58;;;;;;;-144.47;73.77;52717.06;5023762;28;20029;-67
2023/06/23 09:31:45;;;;;;;3.33;1.58;;;;;;;-144.47;72.92;52723.03;5029661;28;20025;-67
2023/06/23 09:34:20;;;;;;;4.32;1.58;;;;;;;-144.47;73.20;52703.16;5028735;28;20109;-66
2023/06/23 09:36:46;;;;;;;5.03;1.50;;;;;;;-144.47;73.67;52689.25;5029240;28;20041;-66
2023/06/23 09:39:15;;;;;;;3.13;1.60;;;;;;;-144.47;74.71;52707.13;5029407;28;20021;-66
2023/06/23 09:41:53;;;;;;;3.33;1.60;;;;;;;-144.47;74.49;52685.28;5012156;28;20105;-67
2023/06/23 09:44:18;;;;;;;8.77;1.65;;;;;;;-144.47;75.68;52727.00;5028883;28;20036;-68
2023/06/23 09:46:44;;;;;;;4.13;1.58;;;;;;;-144.47;75.78;52699.19;5029611;28;20033;-68
2023/06/23 09:49:09;;;;;;;5.50;1.60;;;;;;;-144.47;76.18;52689.25;5011110;28;20152;-66
2023/06/23 09:51:45;;;;;;;6.28;1.50;;;;;;;-144.47;76.53;52699.19;5029091;28;20095;-65
2023/06/23 09:54:11;;;;;;;5.45;1.48;;;;;;;-144.47;75.93;52695.22;5028765;28;20035;-67
2023/06/23 09:56:36;;;;;;;2.10;1.27;;;;;;;-144.47;76.76;52673.38;5029141;28;20029;-64
2023/06/23 09:59:02;;;;;;;5.50;1.40;;;;;;;-144.47;77.24;52701.19;5028775;28;20025;-66
2023/06/23 10:01:27;;;;;;;6.20;1.80;;;;;;;-144.47;77.13;52679.31;5026157;28;20025;-66
2023/06/23 10:03:54;;;;;;;4.65;1.60;;;;;;;-144.47;77.62;52697.19;5028728;28;20021;-66
2023/06/23 10:06:39;;;;;;;8.82;1.80;;;;;;;-144.47;77.52;52691.25;5029082;28;20029;-66
2023/06/23 10:09:10;;;;;;;3.40;1.70;;;;;;;-144.47;77.50;52701.19;5016056;28;20571;-68
2023/06/23 10:11:40;;;;;;;4.53;1.63;;;;;;;-144.47;77.38;52697.19;5028729;28;20040;-68
2023/06/23 10:14:14;;;;;;;2.28;1.38;;;;;;;-144.47;77.58;52689.25;5025817;28;20057;-68
2023/06/23 10:16:43;;;;;;;2.30;1.15;;;;;;;-144.47;78.41;52701.19;5032629;28;20138;-66
2023/06/23 10:19:09;;;;;;;3.65;1.52;;;;;;;-144.47;77.95;52701.19;5014760;28;20031;-62
2023/06/23 10:21:35;;;;;;;4.15;1.73;;;;;;;-144.47;77.59;52675.34;5033048;28;20037;-66
2023/06/23 10:24:08;;;;;;;4.47;1.80;;;;;;;-144.47;77.25;52697.19;5014541;28;20013;-64
2023/06/23 10:26:36;;;;;;;4.72;1.92;;;;;;;-144.47;76.30;52705.16;5014155;28;20489;-68
2023/06/23 10:29:11;;;;;;;4.45;1.60;;;;;;;-144.47;74.63;52697.19;5032082;28;20486;-66
2023/06/23 10:31:37;;;;;;;4.05;1.38;;;;;;;-144.47;73.37;52685.28;5028594;28;20045;-66
2023/06/23 10:34:05;;;;;;;2.83;1.30;;;;;;;-144.47;72.43;52689.25;5031647;28;20031;-65
2023/06/23 10:36:35;;;;;;;8.13;1.42;;;;;;;-144.47;72.40;52717.06;5032393;28;20079;-65
2023/06/23 10:39:04;;;;;;;2.70;1.20;;;;;;;-144.47;72.63;52683.31;5032344;28;20083;-68
2023/06/23 10:41:32;;;;;;;2.83;1.05;;;;;;;-144.47;72.76;52717.06;5032541;28;20029;-66
2023/06/23 10:43:59;;;;;;;3.33;1.20;;;;;;;-144.47;70.10;52709.13;5031861;28;20510;-66
2023/06/23 10:46:26;;;;;;;3.45;0.95;;;;;;;-144.47;70.51;52691.25;5032319;28;20051;-66
2023/06/23 10:48:52;;;;;;;1.30;0.90;;;;;;;-144.47;70.54;52679.31;5032516;28;20611;-67
2023/06/23 10:51:18;;;;;;;2.33;0.85;;;;;;;-144.47;70.24;52695.22;5032260;28;20029;-66
2023/06/23 10:53:58;;;;;;;1.27;0.70;;;;;;;-144.47;71.86;52701.19;5013883;28;20087;-67
2023/06/23 10:56:37;;;;;;;3.58;0.93;;;;;;;-144.47;71.64;52687.28;5014193;28;20376;-66
2023/06/23 10:59:32;;;;;;;2.22;0.85;;;;;;;-144.47;72.08;52713.09;5014197;28;20101;-65
2023/06/23 11:02:00;;;;;;;3.03;1.35;;;;;;;-144.47;71.69;52709.13;5013760;28;20475;-66
2023/06/23 11:04:28;;;;;;;1.73;0.80;;;;;;;-144.47;72.31;52689.25;5032042;28;20029;-66
2023/06/23 11:07:05;;;;;;;2.80;0.90;;;;;;;-144.47;72.34;52709.13;5032537;28;20120;-65
2023/06/23 11:09:52;;;;;;;6.15;1.23;;;;;;;-144.47;72.92;52691.25;5014517;28;20120;-66
2023/06/23 11:12:39;;;;;;;5.05;1.20;;;;;;;-144.47;72.46;52703.16;5020255;28;20028;-66
2023/06/23 11:15:15;;;;;;;3.95;1.30;;;;;;;-144.47;73.11;52681.31;5030381;28;20028;-67
2023/06/23 11:17:49;;;;;;;2.90;1.42;;;;;;;-144.47;73.58;52713.09;5031405;28;20030;-66